createdAt,value
2022-07-31T00:02:08.578Z,1.02
2022-07-31T00:04:35.572Z,1.30
2022-07-31T00:07:03.129Z,1.30
2022-07-31T00:09:52.884Z,1.25
2022-07-31T00:12:17.789Z,1.10
2022-07-31T00:14:45.503Z,1.30
2022-07-31T00:17:12.402Z,1.20
2022-07-31T00:19:39.684Z,1.10
2022-07-31T00:22:06.470Z,1.35
2022-07-31T00:24:33.769Z,1.20
2022-07-31T00:27:01.017Z,1.40
2022-07-31T00:29:28.156Z,1.30
2022-07-31T00:31:55.186Z,1.40
2022-07-31T00:34:22.169Z,1.38
2022-07-31T00:36:49.137Z,1.17
2022-07-31T00:39:16.077Z,1.10
2022-07-31T00:41:45.256Z,1.30
2022-07-31T00:44:13.542Z,1.30
2022-07-31T00:46:42.120Z,1.30
2022-07-31T00:49:12.327Z,1.30
2022-07-31T00:51:40.178Z,1.20
2022-07-31T00:54:08.873Z,1.10
2022-07-31T00:56:36.085Z,1.00
2022-07-31T00:59:04.071Z,1.20
2022-07-31T01:01:31.166Z,1.10
2022-07-31T01:03:58.528Z,1.52
2022-07-31T01:06:25.329Z,1.20
2022-07-31T01:08:52.196Z,1.30
2022-07-31T01:11:28.085Z,1.10
2022-07-31T01:13:59.435Z,1.00
2022-07-31T01:16:30.669Z,1.08
2022-07-31T01:18:58.986Z,0.95
2022-07-31T01:21:33.707Z,1.30
2022-07-31T01:24:19.345Z,1.23
2022-07-31T01:27:06.405Z,1.10
2022-07-31T01:29:42.131Z,1.10
2022-07-31T01:32:14.759Z,1.02
2022-07-31T01:34:52.291Z,1.13
2022-07-31T01:37:25.164Z,1.08
2022-07-31T01:40:11.798Z,1.23
2022-07-31T01:42:43.304Z,1.10
2022-07-31T01:45:14.261Z,1.15
2022-07-31T01:47:43.505Z,1.20
2022-07-31T01:50:43.219Z,1.20
2022-07-31T01:53:01.198Z,1.20
2022-07-31T01:55:30.211Z,1.17
2022-07-31T01:58:20.271Z,1.10
2022-07-31T02:00:48.475Z,1.30
2022-07-31T02:03:17.134Z,1.10
2022-07-31T02:05:44.780Z,1.05
2022-07-31T02:08:14.972Z,1.02
2022-07-31T02:10:48.220Z,1.20
2022-07-31T02:13:17.833Z,1.10
2022-07-31T02:15:46.676Z,1.15
2022-07-31T02:18:16.934Z,1.10
2022-07-31T02:20:58.497Z,1.08
2022-07-31T02:23:26.021Z,1.30
2022-07-31T02:25:54.438Z,1.00
2022-07-31T02:28:24.291Z,1.20
2022-07-31T02:30:53.926Z,1.00
2022-07-31T02:33:24.398Z,1.20
2022-07-31T02:35:56.472Z,1.20
2022-07-31T02:38:26.869Z,1.00
2022-07-31T02:41:00.049Z,1.02
2022-07-31T02:43:30.882Z,0.95
2022-07-31T02:45:59.817Z,1.10
2022-07-31T02:48:29.353Z,1.05
2022-07-31T02:51:00.473Z,1.10
2022-07-31T02:53:28.509Z,1.25
2022-07-31T02:56:01.375Z,1.23
2022-07-31T02:58:32.104Z,0.88
2022-07-31T03:01:06.405Z,1.10
2022-07-31T03:03:34.829Z,1.10
2022-07-31T03:06:01.849Z,1.15
2022-07-31T03:08:29.063Z,1.20
2022-07-31T03:11:01.221Z,1.17
2022-07-31T03:13:30.393Z,1.10
2022-07-31T03:15:59.666Z,1.10
2022-07-31T03:18:27.175Z,1.10
2022-07-31T03:20:56.196Z,1.10
2022-07-31T03:23:26.247Z,1.10
2022-07-31T03:25:59.670Z,1.00
2022-07-31T03:28:26.532Z,1.00
2022-07-31T03:30:56.427Z,1.15
2022-07-31T03:33:25.828Z,1.10
2022-07-31T03:35:53.387Z,0.93
2022-07-31T03:38:38.492Z,1.10
2022-07-31T03:41:08.326Z,1.10
2022-07-31T03:43:44.376Z,1.00
2022-07-31T03:46:17.128Z,1.00
2022-07-31T03:48:44.604Z,1.00
2022-07-31T03:51:13.249Z,1.10
2022-07-31T03:53:42.401Z,0.98
2022-07-31T03:56:13.454Z,1.00
2022-07-31T03:58:40.474Z,1.02
2022-07-31T04:01:12.110Z,1.00
2022-07-31T04:03:39.585Z,1.05
2022-07-31T04:06:27.942Z,1.17
2022-07-31T04:08:55.626Z,1.00
2022-07-31T04:11:22.635Z,1.10
2022-07-31T04:13:49.663Z,1.10
2022-07-31T04:16:16.504Z,1.20
2022-07-31T04:18:43.358Z,1.00
2022-07-31T04:23:49.493Z,1.00
2022-07-31T04:26:37.458Z,1.00
2022-07-31T04:29:05.089Z,1.10
2022-07-31T04:31:36.178Z,1.10
2022-07-31T04:34:04.918Z,1.20
2022-07-31T04:36:32.236Z,1.00
2022-07-31T04:39:01.407Z,1.10
2022-07-31T04:41:29.358Z,1.15
2022-07-31T04:43:57.962Z,1.00
2022-07-31T04:46:26.745Z,0.98
2022-07-31T04:48:55.375Z,1.00
2022-07-31T04:51:23.831Z,0.90
2022-07-31T04:53:51.494Z,1.10
2022-07-31T04:56:58.650Z,1.20
2022-07-31T04:59:59.686Z,1.00
2022-07-31T05:02:13.042Z,0.98
2022-07-31T05:04:39.963Z,1.10
2022-07-31T05:07:06.741Z,1.20
2022-07-31T05:09:36.487Z,1.10
2022-07-31T05:12:05.986Z,1.15
2022-07-31T05:14:33.792Z,1.10
2022-07-31T05:17:00.644Z,1.27
2022-07-31T05:19:41.503Z,1.00
2022-07-31T05:22:28.528Z,1.02
2022-07-31T05:25:23.939Z,1.17
2022-07-31T05:27:50.767Z,1.08
2022-07-31T05:30:30.105Z,1.17
2022-07-31T05:32:58.537Z,0.95
2022-07-31T05:35:25.717Z,1.13
2022-07-31T05:37:52.685Z,1.00
2022-07-31T05:40:27.295Z,1.00
2022-07-31T05:43:13.029Z,1.15
2022-07-31T05:45:52.269Z,1.25
2022-07-31T05:48:19.199Z,1.63
2022-07-31T05:50:47.753Z,1.70
2022-07-31T05:53:17.779Z,1.50
2022-07-31T05:56:10.479Z,1.90
2022-07-31T05:58:42.430Z,1.77
2022-07-31T06:01:15.234Z,1.77
2022-07-31T06:03:51.648Z,1.33
2022-07-31T06:06:22.123Z,1.90
2022-07-31T06:08:49.517Z,1.60
2022-07-31T06:11:17.064Z,1.48
2022-07-31T06:13:44.020Z,1.85
2022-07-31T06:16:30.720Z,1.88
2022-07-31T06:18:57.558Z,2.70
2022-07-31T06:21:30.104Z,2.13
2022-07-31T06:23:57.342Z,2.08
2022-07-31T06:26:34.697Z,2.13
2022-07-31T06:29:02.457Z,1.77
2022-07-31T06:31:29.317Z,2.08
2022-07-31T06:33:58.128Z,1.80
2022-07-31T06:36:30.244Z,1.70
2022-07-31T06:38:58.150Z,1.65
2022-07-31T06:41:47.011Z,1.60
2022-07-31T06:44:34.520Z,2.00
2022-07-31T06:47:24.216Z,2.53
2022-07-31T06:50:18.217Z,1.73
2022-07-31T06:53:03.670Z,2.55
2022-07-31T06:55:32.200Z,1.90
2022-07-31T06:57:59.072Z,1.80
2022-07-31T07:00:26.000Z,2.20
2022-07-31T07:02:52.864Z,2.30
2022-07-31T07:05:21.814Z,2.58
2022-07-31T07:07:52.180Z,2.22
2022-07-31T07:10:19.045Z,2.05
2022-07-31T07:12:57.928Z,2.50
2022-07-31T07:15:25.036Z,3.30
2022-07-31T07:17:51.892Z,2.40
2022-07-31T07:20:41.784Z,2.50
2022-07-31T07:23:08.588Z,2.72
2022-07-31T07:25:40.838Z,2.40
2022-07-31T07:28:13.497Z,2.80
2022-07-31T07:30:42.482Z,2.70
2022-07-31T07:33:09.705Z,2.60
2022-07-31T07:35:37.142Z,2.55
2022-07-31T07:38:09.298Z,2.85
2022-07-31T07:40:36.915Z,3.05
2022-07-31T07:43:04.058Z,2.70
2022-07-31T07:45:32.195Z,2.80
2022-07-31T07:48:06.627Z,2.15
2022-07-31T07:50:54.668Z,2.08
2022-07-31T07:53:36.872Z,1.58
2022-07-31T07:56:09.329Z,2.13
2022-07-31T07:59:14.829Z,1.73
2022-07-31T08:02:01.041Z,1.92
2022-07-31T08:04:30.685Z,2.50
2022-07-31T08:06:58.029Z,2.72
2022-07-31T08:09:28.872Z,1.67
2022-07-31T08:12:14.431Z,2.35
2022-07-31T08:15:01.815Z,2.50
2022-07-31T08:17:47.230Z,2.25
2022-07-31T08:20:14.250Z,2.75
2022-07-31T08:22:41.691Z,2.40
2022-07-31T08:25:11.197Z,2.83
2022-07-31T08:27:43.452Z,2.10
2022-07-31T08:30:15.780Z,2.17
2022-07-31T08:32:42.764Z,2.45
2022-07-31T08:35:29.868Z,2.17
2022-07-31T08:38:03.665Z,2.40
2022-07-31T08:40:43.000Z,2.42
2022-07-31T08:46:02.601Z,2.30
2022-07-31T08:48:33.400Z,2.15
2022-07-31T08:51:03.565Z,2.60
2022-07-31T08:53:57.463Z,2.08
2022-07-31T08:56:25.968Z,2.10
2022-07-31T08:58:55.104Z,1.80
2022-07-31T09:01:22.264Z,1.85
2022-07-31T09:03:49.316Z,1.80
2022-07-31T09:06:16.289Z,2.05
2022-07-31T09:08:43.113Z,1.60
2022-07-31T09:11:14.959Z,1.80
2022-07-31T09:14:03.465Z,1.60
2022-07-31T09:16:52.479Z,1.38
2022-07-31T09:19:53.496Z,1.58
2022-07-31T09:22:25.404Z,1.40
2022-07-31T09:24:53.247Z,1.40
2022-07-31T09:27:27.795Z,1.30
2022-07-31T09:29:56.888Z,1.30
2022-07-31T09:32:46.859Z,1.40
2022-07-31T09:35:21.229Z,1.60
2022-07-31T09:37:48.691Z,1.42
2022-07-31T09:40:35.689Z,1.52
2022-07-31T09:43:31.428Z,1.85
2022-07-31T09:46:00.732Z,1.60
2022-07-31T09:48:29.014Z,1.60
2022-07-31T09:51:10.375Z,1.30
2022-07-31T09:53:43.636Z,1.95
2022-07-31T09:56:32.350Z,2.40
2022-07-31T09:59:01.169Z,2.20
2022-07-31T10:01:29.877Z,4.65
2022-07-31T10:04:00.402Z,3.80
2022-07-31T10:06:31.568Z,2.20
2022-07-31T10:09:02.125Z,1.95
2022-07-31T10:11:51.357Z,2.30
2022-07-31T10:14:30.817Z,1.83
2022-07-31T10:17:00.994Z,2.10
2022-07-31T10:19:53.926Z,1.73
2022-07-31T10:22:54.442Z,1.85
2022-07-31T10:25:28.228Z,1.80
2022-07-31T10:27:57.211Z,2.38
2022-07-31T10:30:28.450Z,1.85
2022-07-31T10:32:58.721Z,2.35
2022-07-31T10:35:26.819Z,2.22
2022-07-31T10:38:30.363Z,1.80
2022-07-31T10:41:32.508Z,1.90
2022-07-31T10:44:19.098Z,1.55
2022-07-31T10:47:18.657Z,1.98
2022-07-31T10:50:21.353Z,2.15
2022-07-31T10:53:19.601Z,1.67
2022-07-31T10:56:14.160Z,5.10
2022-07-31T10:58:59.088Z,3.20
2022-07-31T11:01:53.142Z,3.38
2022-07-31T11:05:07.413Z,2.80
2022-07-31T11:07:46.041Z,2.50
2022-07-31T11:10:34.305Z,2.05
2022-07-31T11:13:36.760Z,1.58
2022-07-31T11:16:15.385Z,2.00
2022-07-31T11:19:03.460Z,2.58
2022-07-31T11:21:39.759Z,3.15
2022-07-31T11:24:23.699Z,2.00
2022-07-31T11:26:55.960Z,6.40
2022-07-31T11:30:01.030Z,3.22
2022-07-31T11:32:25.511Z,2.10
2022-07-31T11:34:54.905Z,4.28
2022-07-31T11:37:29.908Z,3.33
2022-07-31T11:40:13.465Z,2.13
2022-07-31T11:42:43.780Z,1.60
2022-07-31T11:45:12.574Z,1.70
2022-07-31T11:48:10.776Z,1.58
2022-07-31T11:50:30.865Z,1.80
2022-07-31T11:53:04.412Z,1.30
2022-07-31T11:55:31.695Z,1.50
2022-07-31T11:57:59.018Z,1.15
2022-07-31T12:00:29.201Z,1.30
2022-07-31T12:02:58.339Z,1.10
2022-07-31T12:05:38.323Z,1.40
2022-07-31T12:08:07.851Z,1.13
2022-07-31T12:10:35.389Z,1.30
2022-07-31T12:13:02.863Z,1.17
2022-07-31T12:15:29.818Z,1.30
2022-07-31T12:18:05.463Z,1.30
2022-07-31T12:20:36.482Z,1.30
2022-07-31T12:23:05.595Z,1.30
2022-07-31T12:25:43.329Z,1.10
2022-07-31T12:28:12.916Z,1.40
2022-07-31T12:30:40.034Z,1.85
2022-07-31T12:33:11.449Z,1.90
2022-07-31T12:35:55.211Z,1.75
2022-07-31T12:38:40.922Z,1.45
2022-07-31T12:41:12.579Z,1.60
2022-07-31T12:43:43.057Z,1.38
2022-07-31T12:46:23.124Z,1.40
2022-07-31T12:48:50.332Z,1.40
2022-07-31T12:51:19.894Z,1.40
2022-07-31T12:54:08.143Z,1.20
2022-07-31T12:56:39.709Z,1.30
2022-07-31T12:59:08.154Z,1.10
2022-07-31T13:01:35.168Z,1.30
2022-07-31T13:04:03.294Z,1.05
2022-07-31T13:06:30.965Z,1.10
2022-07-31T13:08:57.800Z,1.17
2022-07-31T13:11:45.997Z,1.10
2022-07-31T13:14:14.495Z,1.10
2022-07-31T13:16:41.383Z,0.93
2022-07-31T13:19:08.186Z,1.02
2022-07-31T13:21:48.453Z,0.90
2022-07-31T13:24:17.661Z,1.15
2022-07-31T13:26:45.392Z,0.90
2022-07-31T13:29:12.501Z,1.00
2022-07-31T13:31:39.661Z,0.88
2022-07-31T13:34:06.811Z,0.90
2022-07-31T13:36:38.802Z,1.00
2022-07-31T13:39:08.211Z,1.00
2022-07-31T13:41:35.568Z,0.90
2022-07-31T13:44:03.158Z,0.90
2022-07-31T13:46:30.327Z,0.98
2022-07-31T13:48:59.421Z,0.90
2022-07-31T13:51:28.965Z,0.98
2022-07-31T13:53:56.234Z,1.05
2022-07-31T13:56:36.696Z,0.82
2022-07-31T13:59:08.835Z,1.00
